createdAt,value
2019-01-30T00:00:48.788Z,3.10
2019-01-30T00:01:48.789Z,2.90
2019-01-30T00:02:48.728Z,3.20
2019-01-30T00:03:48.737Z,3.30
2019-01-30T00:04:48.680Z,3.10
2019-01-30T00:05:48.695Z,2.70
2019-01-30T00:06:48.644Z,3.10
2019-01-30T00:07:48.607Z,3.50
2019-01-30T00:08:48.565Z,3.30
2019-01-30T00:09:48.530Z,3.10
2019-01-30T00:10:48.550Z,3.30
2019-01-30T00:11:48.496Z,3.20
2019-01-30T00:12:48.476Z,2.90
2019-01-30T00:13:48.427Z,3.20
2019-01-30T00:14:48.445Z,3.40
2019-01-30T00:15:56.025Z,3.40
2019-01-30T00:16:48.338Z,3.20
2019-01-30T00:17:48.324Z,3.10
2019-01-30T00:18:48.296Z,3.40
2019-01-30T00:19:48.280Z,2.90
2019-01-30T00:20:48.237Z,3.50
2019-01-30T00:21:48.223Z,3.10
2019-01-30T00:22:48.209Z,3.30
2019-01-30T00:23:48.177Z,3.30
2019-01-30T00:24:48.123Z,3.10
2019-01-30T00:25:48.118Z,3.20
2019-01-30T00:26:48.111Z,3.10
2019-01-30T00:27:48.062Z,3.10
2019-01-30T00:28:48.026Z,3.50
2019-01-30T00:29:48.033Z,3.20
2019-01-30T00:30:47.973Z,3.20
2019-01-30T00:31:47.950Z,3.10
2019-01-30T00:32:47.906Z,3.00
2019-01-30T00:33:47.887Z,3.30
2019-01-30T00:34:47.866Z,3.30
2019-01-30T00:35:47.835Z,3.30
2019-01-30T00:36:47.804Z,3.30
2019-01-30T00:37:47.773Z,3.10
2019-01-30T00:38:47.783Z,3.10
2019-01-30T00:39:47.750Z,3.20
2019-01-30T00:40:47.687Z,3.30
2019-01-30T00:41:47.671Z,3.40
2019-01-30T00:42:47.661Z,3.30
2019-01-30T00:43:47.635Z,3.30
2019-01-30T00:44:47.609Z,3.80
2019-01-30T00:45:47.564Z,3.20
2019-01-30T00:46:47.528Z,3.20
2019-01-30T00:47:47.504Z,3.10
2019-01-30T00:48:47.509Z,3.10
2019-01-30T00:49:47.448Z,3.40
2019-01-30T00:50:47.422Z,3.20
2019-01-30T00:51:47.453Z,3.20
2019-01-30T00:52:47.368Z,3.30
2019-01-30T00:53:47.333Z,3.40
2019-01-30T00:54:47.323Z,3.00
2019-01-30T00:55:47.275Z,3.50
2019-01-30T00:56:47.249Z,3.50
2019-01-30T00:57:47.290Z,3.40
2019-01-30T00:58:47.204Z,3.70
2019-01-30T00:59:47.170Z,3.70
2019-01-30T01:00:47.159Z,3.20
2019-01-30T01:01:47.156Z,3.60
2019-01-30T01:02:47.090Z,3.40
2019-01-30T01:03:47.071Z,3.60
2019-01-30T01:04:47.031Z,3.20
2019-01-30T01:05:47.043Z,4.10
2019-01-30T01:06:46.976Z,3.20
2019-01-30T01:07:46.973Z,3.40
2019-01-30T01:08:46.952Z,3.50
2019-01-30T01:09:46.917Z,3.40
2019-01-30T01:10:46.925Z,3.30
2019-01-30T01:11:46.834Z,3.60
2019-01-30T01:12:46.812Z,3.10
2019-01-30T01:13:46.804Z,3.50
2019-01-30T01:14:46.753Z,3.30
2019-01-30T01:15:46.738Z,3.60
2019-01-30T01:16:46.700Z,3.40
2019-01-30T01:17:46.680Z,3.60
2019-01-30T01:18:46.695Z,3.30
2019-01-30T01:19:46.618Z,3.20
2019-01-30T01:20:46.591Z,3.20
2019-01-30T01:21:46.582Z,3.50
2019-01-30T01:22:46.537Z,3.40
2019-01-30T01:23:46.536Z,3.50
2019-01-30T01:24:46.516Z,3.50
2019-01-30T01:25:46.508Z,3.50
2019-01-30T01:26:46.439Z,3.50
2019-01-30T01:27:46.404Z,3.60
2019-01-30T01:28:46.391Z,3.40
2019-01-30T01:29:46.339Z,3.70
2019-01-30T01:30:46.365Z,3.50
2019-01-30T01:31:46.290Z,3.40
2019-01-30T01:32:46.883Z,3.60
2019-01-30T01:33:46.250Z,3.40
2019-01-30T01:34:46.214Z,3.50
2019-01-30T01:35:46.174Z,3.70
2019-01-30T01:36:46.184Z,3.30
2019-01-30T01:37:46.151Z,3.50
2019-01-30T01:38:46.095Z,3.60
2019-01-30T01:39:46.093Z,3.80
2019-01-30T01:40:46.053Z,3.80
2019-01-30T01:41:46.044Z,3.50
2019-01-30T01:42:46.006Z,3.20
2019-01-30T01:43:45.985Z,3.40
2019-01-30T01:44:45.922Z,3.40
2019-01-30T01:45:45.915Z,3.30
2019-01-30T01:46:45.861Z,3.20
2019-01-30T01:47:45.842Z,3.80
2019-01-30T01:48:45.838Z,3.80
2019-01-30T01:49:45.807Z,3.60
2019-01-30T01:50:45.780Z,3.80
2019-01-30T01:51:45.760Z,3.90
2019-01-30T01:52:45.739Z,3.70
2019-01-30T01:53:45.678Z,3.90
2019-01-30T01:54:45.663Z,3.90
2019-01-30T01:55:45.656Z,3.70
2019-01-30T01:56:45.627Z,3.70
2019-01-30T01:57:45.579Z,4.00
2019-01-30T01:58:45.533Z,4.00
2019-01-30T01:59:45.535Z,3.70
2019-01-30T02:00:45.512Z,3.80
2019-01-30T02:01:45.451Z,4.40
2019-01-30T02:02:45.423Z,3.80
2019-01-30T02:03:45.393Z,4.40
2019-01-30T02:04:45.364Z,4.00
2019-01-30T02:05:45.379Z,4.20
2019-01-30T02:06:45.302Z,4.20
2019-01-30T02:07:45.284Z,4.20
2019-01-30T02:08:45.256Z,3.90
2019-01-30T02:09:45.223Z,4.40
2019-01-30T02:10:45.207Z,4.20
2019-01-30T02:11:45.190Z,3.70
2019-01-30T02:12:45.202Z,3.80
2019-01-30T02:13:45.144Z,3.90
2019-01-30T02:14:45.095Z,3.60
2019-01-30T02:15:45.063Z,4.80
2019-01-30T02:16:45.060Z,4.40
2019-01-30T02:17:44.998Z,4.20
2019-01-30T02:18:44.973Z,3.80
2019-01-30T02:19:44.964Z,4.40
2019-01-30T02:20:44.910Z,4.40
2019-01-30T02:21:44.912Z,3.90
2019-01-30T02:22:44.881Z,4.40
2019-01-30T02:23:44.845Z,4.50
2019-01-30T02:24:44.803Z,4.50
2019-01-30T02:25:44.809Z,4.60
2019-01-30T02:26:44.784Z,4.50
2019-01-30T02:27:44.715Z,4.20
2019-01-30T02:28:44.711Z,4.20
2019-01-30T02:29:44.656Z,4.30
2019-01-30T02:30:47.494Z,4.20
2019-01-30T02:31:44.610Z,4.10
2019-01-30T02:32:44.593Z,4.60
2019-01-30T02:33:44.556Z,4.50
2019-01-30T02:34:44.543Z,4.40
2019-01-30T02:35:44.512Z,4.00
2019-01-30T02:36:44.459Z,4.40
2019-01-30T02:37:44.490Z,4.50
2019-01-30T02:38:44.414Z,4.20
2019-01-30T02:39:44.440Z,4.30
2019-01-30T02:40:44.350Z,4.30
2019-01-30T02:41:44.355Z,4.30
2019-01-30T02:42:44.380Z,4.00
2019-01-30T02:43:44.277Z,4.60
2019-01-30T02:44:44.290Z,4.30
2019-01-30T02:45:44.231Z,4.10
2019-01-30T02:46:44.226Z,4.20
2019-01-30T02:47:44.165Z,4.60
2019-01-30T02:48:44.150Z,4.30
2019-01-30T02:49:44.117Z,4.30
2019-01-30T02:50:44.072Z,3.80
2019-01-30T02:51:44.048Z,4.20
2019-01-30T02:52:44.027Z,4.00
2019-01-30T02:53:44.041Z,4.40
2019-01-30T02:54:43.953Z,4.20
2019-01-30T02:55:43.945Z,4.40
2019-01-30T02:56:43.921Z,4.40
2019-01-30T02:57:43.883Z,3.70
2019-01-30T02:58:43.860Z,4.20
2019-01-30T02:59:43.828Z,4.30
2019-01-30T03:00:43.800Z,4.10
2019-01-30T03:01:43.764Z,4.00
2019-01-30T03:02:43.784Z,4.50
2019-01-30T03:03:43.696Z,4.10
2019-01-30T03:04:43.672Z,4.10
2019-01-30T03:05:43.751Z,4.20
2019-01-30T03:06:43.620Z,3.80
2019-01-30T03:07:43.628Z,4.20
2019-01-30T03:08:43.589Z,3.90
2019-01-30T03:09:43.555Z,4.20
2019-01-30T03:10:43.534Z,4.40
2019-01-30T03:11:43.480Z,4.10
2019-01-30T03:12:43.461Z,4.10
2019-01-30T03:13:43.416Z,4.20
2019-01-30T03:14:43.394Z,5.20
2019-01-30T03:15:43.408Z,4.30
2019-01-30T03:16:43.356Z,4.20
2019-01-30T03:17:43.315Z,4.60
2019-01-30T03:18:43.279Z,4.40
2019-01-30T03:19:43.254Z,4.70
2019-01-30T03:20:43.231Z,4.30
2019-01-30T03:21:43.195Z,4.40
2019-01-30T03:22:43.184Z,4.50
2019-01-30T03:23:43.148Z,4.30
2019-01-30T03:24:43.144Z,4.30
2019-01-30T03:25:43.132Z,4.90
2019-01-30T03:26:43.054Z,4.00
2019-01-30T03:27:43.051Z,4.50
2019-01-30T03:28:43.014Z,4.20
2019-01-30T03:29:42.997Z,4.00
2019-01-30T03:30:42.961Z,4.30
2019-01-30T03:31:42.957Z,4.30
2019-01-30T03:32:42.907Z,4.60
2019-01-30T03:33:42.874Z,4.50
2019-01-30T03:34:42.868Z,4.40
2019-01-30T03:35:42.815Z,3.90
2019-01-30T03:36:42.773Z,4.60
2019-01-30T03:37:42.738Z,4.60
2019-01-30T03:38:42.716Z,4.40
2019-01-30T03:39:42.698Z,4.60
2019-01-30T03:40:42.719Z,4.30
2019-01-30T03:41:42.633Z,4.70
2019-01-30T03:42:42.632Z,4.40
2019-01-30T03:43:42.616Z,4.50
2019-01-30T03:44:42.544Z,4.50
2019-01-30T03:45:42.528Z,4.90
2019-01-30T03:46:42.483Z,4.80
2019-01-30T03:47:42.489Z,4.10
2019-01-30T03:48:42.435Z,4.60
2019-01-30T03:49:42.408Z,4.60
2019-01-30T03:50:42.385Z,4.50
2019-01-30T03:51:42.351Z,4.60
2019-01-30T03:52:42.320Z,4.20
2019-01-30T03:53:42.285Z,4.10
2019-01-30T03:54:42.276Z,4.20
2019-01-30T03:55:42.245Z,4.50
2019-01-30T03:56:42.231Z,4.40
2019-01-30T03:57:42.171Z,4.00
2019-01-30T03:58:42.159Z,4.70
2019-01-30T03:59:42.160Z,4.50
2019-01-30T04:00:42.120Z,4.80
2019-01-30T04:01:42.082Z,4.30
2019-01-30T04:02:42.071Z,4.00
2019-01-30T04:03:42.002Z,4.60
2019-01-30T04:04:42.036Z,4.20
2019-01-30T04:05:41.948Z,5.00
2019-01-30T04:06:41.971Z,4.40
2019-01-30T04:07:41.921Z,4.30
2019-01-30T04:08:41.902Z,4.30
2019-01-30T04:09:41.858Z,4.60
2019-01-30T04:10:41.819Z,4.70
2019-01-30T04:11:41.785Z,4.70
2019-01-30T04:12:41.786Z,4.80
2019-01-30T04:13:41.739Z,4.50
2019-01-30T04:14:41.738Z,4.30
2019-01-30T04:15:41.707Z,4.60
2019-01-30T04:16:41.632Z,4.50
2019-01-30T04:17:41.638Z,4.40
2019-01-30T04:18:41.601Z,4.20
2019-01-30T04:19:41.587Z,4.50
2019-01-30T04:20:41.538Z,4.20
2019-01-30T04:21:41.491Z,4.70
2019-01-30T04:22:41.493Z,4.40
2019-01-30T04:23:41.470Z,4.10
2019-01-30T04:24:41.410Z,4.20
2019-01-30T04:25:41.448Z,4.70
2019-01-30T04:26:41.358Z,4.40
2019-01-30T04:27:41.348Z,4.30
2019-01-30T04:28:41.298Z,4.20
2019-01-30T04:29:41.272Z,4.90
2019-01-30T04:30:41.236Z,4.30
2019-01-30T04:31:41.221Z,4.20
2019-01-30T04:32:41.209Z,4.20
2019-01-30T04:33:41.153Z,4.40
2019-01-30T04:34:41.127Z,4.20
2019-01-30T04:35:41.157Z,3.90
2019-01-30T04:36:41.070Z,4.80
2019-01-30T04:37:41.073Z,4.10
2019-01-30T04:38:41.031Z,4.60
2019-01-30T04:39:41.011Z,4.30
2019-01-30T04:40:40.970Z,4.50
2019-01-30T04:41:40.967Z,4.40
2019-01-30T04:42:40.896Z,4.30
2019-01-30T04:43:40.921Z,4.80
2019-01-30T04:44:40.892Z,4.00
2019-01-30T04:45:40.843Z,4.30
2019-01-30T04:46:40.791Z,4.00
2019-01-30T04:47:40.794Z,4.60
2019-01-30T04:48:40.733Z,4.40
2019-01-30T04:49:40.722Z,4.60
2019-01-30T04:50:40.684Z,4.30
2019-01-30T04:51:40.717Z,4.70
2019-01-30T04:52:40.655Z,3.90
2019-01-30T04:53:40.633Z,4.60
2019-01-30T04:54:40.568Z,4.80
2019-01-30T04:55:40.587Z,4.30
2019-01-30T04:56:40.539Z,4.70
2019-01-30T04:57:40.506Z,4.60
2019-01-30T04:58:40.457Z,4.30
2019-01-30T04:59:40.419Z,4.90
2019-01-30T05:00:40.407Z,4.80
2019-01-30T05:01:49.397Z,4.90
2019-01-30T05:02:40.368Z,4.80
2019-01-30T05:03:40.347Z,4.70
2019-01-30T05:04:40.293Z,4.70
2019-01-30T05:05:40.276Z,4.40
2019-01-30T05:06:40.247Z,4.60
2019-01-30T05:07:40.217Z,4.70
2019-01-30T05:08:40.285Z,4.60
2019-01-30T05:09:40.168Z,4.90
2019-01-30T05:10:40.151Z,4.50
2019-01-30T05:11:40.122Z,4.60
2019-01-30T05:12:40.110Z,4.80
2019-01-30T05:13:40.033Z,4.50
2019-01-30T05:14:39.999Z,4.40
2019-01-30T05:15:39.993Z,4.40
2019-01-30T05:16:39.939Z,4.50
2019-01-30T05:17:39.996Z,4.50
2019-01-30T05:18:39.911Z,4.80
2019-01-30T05:19:39.872Z,4.30
2019-01-30T05:20:39.856Z,4.90
2019-01-30T05:21:39.819Z,4.30
2019-01-30T05:22:39.793Z,4.70
2019-01-30T05:23:39.775Z,4.70
2019-01-30T05:24:39.720Z,4.60
2019-01-30T05:25:39.711Z,4.50
2019-01-30T05:26:39.669Z,5.00
2019-01-30T05:27:39.657Z,4.70
2019-01-30T05:28:39.652Z,4.50
2019-01-30T05:29:39.579Z,5.00
2019-01-30T05:30:39.586Z,4.60
2019-01-30T05:31:39.553Z,4.60
2019-01-30T05:32:39.578Z,5.00
2019-01-30T05:33:39.475Z,4.70
2019-01-30T05:34:39.440Z,5.00
2019-01-30T05:35:39.421Z,4.90
2019-01-30T05:36:39.398Z,5.20
2019-01-30T05:37:39.373Z,5.30
2019-01-30T05:38:39.333Z,5.10
2019-01-30T05:39:39.309Z,5.70
2019-01-30T05:40:39.274Z,4.90
2019-01-30T05:41:39.252Z,4.70
2019-01-30T05:42:39.221Z,4.90
2019-01-30T05:43:39.226Z,5.40
2019-01-30T05:44:39.153Z,5.30
2019-01-30T05:45:39.149Z,4.90
2019-01-30T05:46:39.135Z,4.80
2019-01-30T05:47:39.104Z,5.10
2019-01-30T05:48:39.100Z,5.00
2019-01-30T05:49:39.022Z,4.90
2019-01-30T05:50:39.001Z,5.30
2019-01-30T05:51:38.990Z,5.00
2019-01-30T05:52:38.947Z,4.80
2019-01-30T05:53:38.935Z,5.40
2019-01-30T05:54:38.900Z,4.90
2019-01-30T05:55:38.856Z,5.00
2019-01-30T05:56:38.822Z,5.50
2019-01-30T05:57:38.846Z,5.20
2019-01-30T05:58:38.769Z,5.30
2019-01-30T05:59:38.753Z,5.30
2019-01-30T06:00:38.745Z,5.10
2019-01-30T06:01:38.676Z,5.20
2019-01-30T06:02:38.658Z,5.10
2019-01-30T06:03:38.625Z,5.20
2019-01-30T06:04:38.589Z,5.10
2019-01-30T06:05:38.575Z,5.50
2019-01-30T06:06:38.545Z,5.50
2019-01-30T06:07:38.548Z,5.60
2019-01-30T06:08:38.479Z,5.20
2019-01-30T06:09:38.478Z,5.20
2019-01-30T06:10:38.432Z,5.30
2019-01-30T06:11:38.429Z,4.90
2019-01-30T06:12:38.394Z,5.10
2019-01-30T06:13:38.340Z,5.20
2019-01-30T06:14:38.356Z,5.00
2019-01-30T06:15:38.290Z,5.20
2019-01-30T06:16:38.256Z,5.00
2019-01-30T06:17:38.232Z,5.70
2019-01-30T06:18:38.236Z,5.40
2019-01-30T06:19:38.204Z,5.30
2019-01-30T06:20:38.182Z,5.10
2019-01-30T06:21:38.130Z,5.40
2019-01-30T06:22:38.090Z,5.10
2019-01-30T06:23:38.089Z,5.10
2019-01-30T06:24:38.048Z,4.70
2019-01-30T06:25:38.008Z,5.10
2019-01-30T06:26:37.975Z,5.00
2019-01-30T06:27:38.004Z,5.30
2019-01-30T06:28:37.924Z,4.90
2019-01-30T06:29:37.892Z,5.20
2019-01-30T06:30:37.882Z,5.20
2019-01-30T06:31:37.834Z,5.70
2019-01-30T06:32:37.828Z,5.60
2019-01-30T06:33:37.819Z,5.60
2019-01-30T06:34:37.756Z,5.10
2019-01-30T06:35:37.770Z,5.30
2019-01-30T06:36:37.704Z,5.20
2019-01-30T06:37:37.675Z,5.50
2019-01-30T06:38:37.640Z,5.60
2019-01-30T06:39:37.636Z,4.70
2019-01-30T06:40:37.581Z,5.00
2019-01-30T06:41:37.580Z,6.20
2019-01-30T06:42:37.555Z,5.30
2019-01-30T06:43:37.516Z,5.10
2019-01-30T06:44:37.469Z,5.30
2019-01-30T06:45:37.442Z,5.40
2019-01-30T06:46:37.444Z,5.70
2019-01-30T06:47:37.390Z,5.10
2019-01-30T06:48:37.434Z,6.00
2019-01-30T06:49:37.343Z,5.20
2019-01-30T06:50:37.328Z,5.00
2019-01-30T06:51:37.309Z,5.00
2019-01-30T06:52:37.269Z,5.60
2019-01-30T06:53:37.239Z,5.90
2019-01-30T06:54:37.382Z,4.90
2019-01-30T06:55:37.159Z,5.30
2019-01-30T06:56:37.150Z,5.10
2019-01-30T06:57:37.124Z,5.70
2019-01-30T06:58:37.112Z,5.60
2019-01-30T06:59:37.085Z,5.00
2019-01-30T07:00:37.013Z,5.40
2019-01-30T07:01:36.991Z,5.10
2019-01-30T07:02:36.984Z,5.60
2019-01-30T07:03:37.218Z,5.60
2019-01-30T07:04:37.938Z,5.30
2019-01-30T07:05:38.548Z,5.40
2019-01-30T07:06:36.852Z,5.80
2019-01-30T07:07:36.845Z,5.40
2019-01-30T07:08:36.799Z,5.50
2019-01-30T07:09:36.766Z,5.10
2019-01-30T07:10:36.767Z,5.40
2019-01-30T07:11:45.412Z,5.50
2019-01-30T07:12:36.700Z,5.30
2019-01-30T07:13:36.771Z,6.00
2019-01-30T07:14:36.708Z,5.90
2019-01-30T07:15:36.619Z,5.80
2019-01-30T07:16:36.565Z,5.80
2019-01-30T07:17:36.555Z,5.80
2019-01-30T07:18:36.547Z,5.50
2019-01-30T07:19:36.501Z,5.80
2019-01-30T07:20:36.457Z,5.70
2019-01-30T07:21:36.462Z,5.20
2019-01-30T07:22:36.406Z,5.70
2019-01-30T07:23:36.380Z,5.50
2019-01-30T07:24:36.338Z,6.20
2019-01-30T07:25:36.906Z,6.00
2019-01-30T07:26:36.311Z,5.60
2019-01-30T07:27:36.287Z,5.90
2019-01-30T07:28:36.245Z,6.40
2019-01-30T07:29:36.222Z,5.40
2019-01-30T07:30:36.529Z,6.00
2019-01-30T07:31:36.177Z,5.80
2019-01-30T07:32:42.178Z,6.20
2019-01-30T07:33:36.420Z,6.20
2019-01-30T07:34:36.061Z,5.80
2019-01-30T07:35:36.051Z,6.00
2019-01-30T07:36:36.022Z,6.30
2019-01-30T07:37:36.004Z,5.90
2019-01-30T07:38:35.943Z,5.80
2019-01-30T07:39:35.916Z,6.50
2019-01-30T07:40:35.898Z,6.20
2019-01-30T07:41:35.908Z,6.40
2019-01-30T07:42:35.857Z,5.80
2019-01-30T07:43:35.816Z,6.20
2019-01-30T07:44:35.809Z,5.90
2019-01-30T07:45:35.772Z,5.50
2019-01-30T07:46:35.717Z,6.00
2019-01-30T07:47:35.688Z,6.10
2019-01-30T07:48:35.674Z,6.30
2019-01-30T07:49:35.672Z,5.70
2019-01-30T07:50:35.614Z,6.20
2019-01-30T07:51:35.611Z,5.90
2019-01-30T07:52:35.559Z,5.70
2019-01-30T07:53:35.525Z,6.20
2019-01-30T07:54:35.492Z,6.10
2019-01-30T07:55:35.475Z,6.10
2019-01-30T07:56:35.442Z,5.70
2019-01-30T07:57:35.408Z,6.10
2019-01-30T07:58:35.383Z,6.00
2019-01-30T07:59:35.354Z,5.50
2019-01-30T08:00:35.357Z,5.90
2019-01-30T08:01:35.301Z,5.50
2019-01-30T08:02:35.273Z,5.90
2019-01-30T08:05:08.363Z,5.90
2019-01-30T08:05:58.264Z,6.20
2019-01-30T08:06:58.206Z,6.00
2019-01-30T08:07:58.190Z,6.00
2019-01-30T08:08:58.142Z,5.90
2019-01-30T08:09:58.108Z,6.10
2019-01-30T08:10:58.142Z,6.30
2019-01-30T08:11:58.057Z,5.20
2019-01-30T08:12:58.038Z,6.20
2019-01-30T08:13:58.033Z,6.30
2019-01-30T08:14:57.985Z,5.90
2019-01-30T08:15:57.970Z,5.70
2019-01-30T08:16:57.942Z,6.20
2019-01-30T08:17:57.943Z,6.00
2019-01-30T08:18:57.862Z,6.70
2019-01-30T08:19:57.831Z,6.40
2019-01-30T08:20:57.806Z,6.40
2019-01-30T08:21:57.779Z,6.40
2019-01-30T08:22:57.978Z,6.40
2019-01-30T08:23:57.744Z,6.20
2019-01-30T08:24:57.724Z,6.00
2019-01-30T08:25:57.655Z,5.80
2019-01-30T08:26:57.718Z,5.80
2019-01-30T08:27:58.082Z,6.70
2019-01-30T08:28:57.822Z,5.70
2019-01-30T08:29:57.576Z,6.50
2019-01-30T08:30:57.536Z,6.10
2019-01-30T08:31:57.687Z,6.30
2019-01-30T08:33:04.073Z,6.80
2019-01-30T08:33:57.470Z,6.40
2019-01-30T08:34:57.409Z,6.50
2019-01-30T08:35:57.392Z,5.80
2019-01-30T08:36:57.400Z,6.60
2019-01-30T08:37:57.350Z,6.50
2019-01-30T08:38:57.301Z,6.40
2019-01-30T08:39:57.298Z,6.30
2019-01-30T08:40:57.263Z,6.10
2019-01-30T08:41:57.237Z,6.40
2019-01-30T08:42:57.214Z,6.60
2019-01-30T08:43:58.020Z,5.90
2019-01-30T08:44:57.133Z,6.00
2019-01-30T08:45:57.103Z,6.60
2019-01-30T08:46:57.107Z,6.60
2019-01-30T08:47:57.082Z,6.20
2019-01-30T08:48:57.020Z,6.10
2019-01-30T08:49:56.996Z,7.10
2019-01-30T08:50:56.999Z,6.80
2019-01-30T08:51:56.933Z,6.70
2019-01-30T08:52:56.916Z,6.30
2019-01-30T08:53:56.933Z,6.40
2019-01-30T08:54:56.887Z,7.10
2019-01-30T08:55:56.837Z,6.70
2019-01-30T08:56:56.830Z,6.80
2019-01-30T08:57:56.782Z,6.80
2019-01-30T08:58:56.757Z,6.90
2019-01-30T08:59:56.760Z,7.40
2019-01-30T09:00:56.722Z,6.60
2019-01-30T09:01:56.664Z,6.50
2019-01-30T09:02:56.650Z,7.20
2019-01-30T09:03:56.625Z,6.50
2019-01-30T09:04:56.579Z,7.20
2019-01-30T09:05:56.547Z,7.00
2019-01-30T09:06:56.560Z,6.80
2019-01-30T09:07:56.506Z,6.70
2019-01-30T09:08:56.499Z,6.80
2019-01-30T09:09:56.460Z,7.10
2019-01-30T09:10:56.438Z,7.30
2019-01-30T09:11:57.756Z,7.10
2019-01-30T09:12:56.385Z,7.70
2019-01-30T09:13:56.330Z,7.20
2019-01-30T09:14:56.329Z,7.20
2019-01-30T09:15:56.293Z,7.30
2019-01-30T09:16:56.245Z,6.90
2019-01-30T09:17:56.234Z,7.20
2019-01-30T09:18:56.234Z,7.70
2019-01-30T09:19:56.168Z,7.40
2019-01-30T09:20:56.146Z,6.50
2019-01-30T09:21:56.115Z,7.00
2019-01-30T09:22:56.097Z,7.30
2019-01-30T09:23:56.059Z,7.60
2019-01-30T09:24:56.032Z,7.40
2019-01-30T09:25:56.005Z,7.10
2019-01-30T09:26:55.989Z,7.00
2019-01-30T09:27:55.973Z,7.10
2019-01-30T09:28:55.923Z,7.00
2019-01-30T09:29:55.898Z,7.10
2019-01-30T09:30:55.890Z,7.40
2019-01-30T09:31:55.840Z,7.00
2019-01-30T09:32:55.900Z,6.90
2019-01-30T09:33:55.789Z,7.10
2019-01-30T09:34:55.791Z,7.00
2019-01-30T09:35:55.718Z,7.50
2019-01-30T09:36:55.729Z,7.30
2019-01-30T09:37:55.716Z,7.50
2019-01-30T09:38:55.631Z,7.10
2019-01-30T09:39:55.654Z,7.00
2019-01-30T09:40:55.584Z,7.80
2019-01-30T09:41:55.558Z,7.70
2019-01-30T09:42:55.533Z,6.90
2019-01-30T09:43:55.526Z,7.20
2019-01-30T09:44:55.537Z,7.90
2019-01-30T09:45:55.469Z,7.60
2019-01-30T09:46:55.475Z,7.80
2019-01-30T09:47:55.387Z,7.40
2019-01-30T09:48:55.404Z,7.20
2019-01-30T09:49:55.365Z,7.20
2019-01-30T09:50:55.330Z,6.90
2019-01-30T09:51:55.307Z,7.40
2019-01-30T09:52:55.258Z,6.60
2019-01-30T09:53:57.517Z,7.00
2019-01-30T09:54:55.197Z,7.30
2019-01-30T09:55:55.253Z,7.20
2019-01-30T09:56:55.187Z,7.30
2019-01-30T09:57:55.118Z,7.70
2019-01-30T09:58:55.176Z,7.40
2019-01-30T09:59:55.100Z,7.60
2019-01-30T10:00:55.039Z,7.50
2019-01-30T10:01:55.010Z,7.60
2019-01-30T10:02:54.998Z,7.50
2019-01-30T10:03:54.954Z,7.30
2019-01-30T10:04:54.928Z,7.30
2019-01-30T10:05:54.964Z,7.70
2019-01-30T10:06:54.886Z,7.20
2019-01-30T10:07:55.358Z,7.20
2019-01-30T10:08:54.829Z,7.30
2019-01-30T10:09:54.810Z,7.10
2019-01-30T10:10:54.782Z,7.10
2019-01-30T10:11:54.751Z,7.30
2019-01-30T10:12:54.746Z,7.60
2019-01-30T10:13:54.681Z,7.40
2019-01-30T10:14:54.682Z,7.50
2019-01-30T10:15:54.682Z,7.90
2019-01-30T10:16:54.596Z,7.70
2019-01-30T10:17:54.602Z,7.60
2019-01-30T10:18:54.596Z,7.40
2019-01-30T10:19:54.530Z,8.30
2019-01-30T10:20:54.534Z,7.80
2019-01-30T10:21:54.487Z,7.80
2019-01-30T10:22:54.438Z,7.70
2019-01-30T10:23:54.430Z,8.20
2019-01-30T10:24:54.412Z,7.70
2019-01-30T10:25:54.381Z,7.70
2019-01-30T10:26:54.349Z,7.80
2019-01-30T10:27:54.302Z,7.60
2019-01-30T10:28:54.283Z,7.20
2019-01-30T10:29:54.277Z,7.90
2019-01-30T10:30:54.250Z,7.50
2019-01-30T10:31:54.197Z,7.30
2019-01-30T10:32:54.220Z,7.50
2019-01-30T10:33:54.154Z,7.70
2019-01-30T10:34:54.115Z,7.30
2019-01-30T10:35:54.113Z,7.70
2019-01-30T10:36:54.093Z,7.90
2019-01-30T10:37:54.121Z,8.30
2019-01-30T10:38:54.048Z,7.00
2019-01-30T10:39:54.002Z,7.90
2019-01-30T10:40:53.984Z,7.90
2019-01-30T10:41:53.957Z,7.40
2019-01-30T10:42:53.899Z,7.90
2019-01-30T10:43:53.875Z,8.10
2019-01-30T10:44:53.865Z,8.10
2019-01-30T10:45:53.859Z,7.50
2019-01-30T10:46:53.806Z,8.00
2019-01-30T10:47:53.780Z,7.70
2019-01-30T10:48:53.776Z,7.40
2019-01-30T10:49:53.747Z,8.90
2019-01-30T10:50:53.694Z,9.00
2019-01-30T10:51:53.671Z,8.90
2019-01-30T10:52:53.656Z,7.90
2019-01-30T10:53:53.602Z,8.50
2019-01-30T10:54:53.598Z,8.10
2019-01-30T10:55:53.567Z,8.40
2019-01-30T10:56:53.526Z,9.20
2019-01-30T10:57:53.545Z,8.80
2019-01-30T10:58:53.475Z,8.90
2019-01-30T10:59:53.447Z,9.30
2019-01-30T11:00:53.449Z,8.70
2019-01-30T11:01:53.405Z,8.30
2019-01-30T11:02:53.357Z,9.00
2019-01-30T11:03:57.360Z,9.50
2019-01-30T11:04:53.327Z,9.20
2019-01-30T11:05:53.310Z,9.00
2019-01-30T11:06:53.259Z,8.60
2019-01-30T11:07:53.252Z,9.20
2019-01-30T11:08:53.208Z,8.80
2019-01-30T11:09:53.210Z,9.90
2019-01-30T11:10:53.171Z,9.70
2019-01-30T11:11:53.148Z,10.40
2019-01-30T11:12:53.093Z,10.70
2019-01-30T11:13:53.087Z,10.80
2019-01-30T11:14:53.074Z,11.10
2019-01-30T11:15:53.023Z,10.80
2019-01-30T11:16:53.015Z,10.80
2019-01-30T11:17:52.995Z,10.70
2019-01-30T11:18:52.941Z,10.40
2019-01-30T11:19:52.904Z,10.30
2019-01-30T11:20:52.912Z,9.90
2019-01-30T11:21:52.860Z,9.70
2019-01-30T11:22:53.639Z,10.50
2019-01-30T11:23:52.871Z,10.20
2019-01-30T11:24:52.803Z,10.00
2019-01-30T11:25:52.767Z,11.10
2019-01-30T11:26:52.774Z,9.50
2019-01-30T11:27:52.686Z,9.50
2019-01-30T11:28:52.673Z,10.40
2019-01-30T11:29:52.678Z,9.90
2019-01-30T11:30:52.631Z,10.10
2019-01-30T11:31:52.592Z,9.40
2019-01-30T11:32:52.567Z,10.30
2019-01-30T11:33:52.530Z,10.00
2019-01-30T11:34:52.506Z,10.30
2019-01-30T11:35:52.506Z,9.60
2019-01-30T11:36:52.449Z,9.60
2019-01-30T11:37:52.453Z,9.90
2019-01-30T11:38:52.393Z,10.00
2019-01-30T11:39:52.374Z,10.20
2019-01-30T11:40:52.366Z,10.30
2019-01-30T11:41:52.321Z,10.50
2019-01-30T11:42:52.303Z,9.80
2019-01-30T11:43:52.276Z,10.00
2019-01-30T11:44:52.228Z,10.10
2019-01-30T11:45:52.230Z,9.90
2019-01-30T11:46:52.176Z,9.90
2019-01-30T11:47:52.172Z,9.90
2019-01-30T11:48:56.516Z,10.80
2019-01-30T11:49:52.122Z,10.20
2019-01-30T11:50:52.101Z,10.10
2019-01-30T11:51:52.072Z,10.10
2019-01-30T11:52:52.013Z,9.60
2019-01-30T11:53:52.003Z,10.70
2019-01-30T11:54:51.972Z,9.70
2019-01-30T11:55:51.939Z,10.60
2019-01-30T11:56:51.905Z,10.10
2019-01-30T11:57:51.999Z,10.30
2019-01-30T11:58:51.852Z,9.80
2019-01-30T11:59:51.866Z,10.20
2019-01-30T12:00:51.800Z,10.30
2019-01-30T12:01:51.806Z,10.00
2019-01-30T12:02:51.786Z,9.90
2019-01-30T12:03:51.743Z,10.30
2019-01-30T12:04:51.713Z,9.90
2019-01-30T12:05:51.672Z,10.10
2019-01-30T12:06:51.660Z,10.50
2019-01-30T12:07:51.657Z,10.90
2019-01-30T12:08:51.627Z,10.20
2019-01-30T12:09:51.581Z,10.40
2019-01-30T12:10:51.563Z,10.80
2019-01-30T12:11:51.522Z,11.30
2019-01-30T12:12:51.485Z,11.60
2019-01-30T12:13:51.486Z,12.20
2019-01-30T12:14:51.464Z,11.50
2019-01-30T12:15:51.408Z,10.90
2019-01-30T12:16:51.381Z,12.20
2019-01-30T12:17:51.356Z,11.10
2019-01-30T12:18:51.321Z,11.20
2019-01-30T12:19:51.310Z,11.20
2019-01-30T12:20:52.007Z,11.50
2019-01-30T12:21:51.304Z,11.60
2019-01-30T12:22:51.245Z,11.10
2019-01-30T12:23:51.211Z,11.00
2019-01-30T12:24:51.165Z,11.20
2019-01-30T12:25:51.141Z,10.90
2019-01-30T12:26:51.130Z,11.10
2019-01-30T12:27:51.222Z,11.20
2019-01-30T12:28:51.066Z,11.30
2019-01-30T12:29:51.062Z,10.80
2019-01-30T12:30:51.014Z,11.00
2019-01-30T12:31:51.035Z,11.10
2019-01-30T12:32:50.959Z,11.50
2019-01-30T12:33:50.937Z,10.70
2019-01-30T12:34:50.918Z,11.30
2019-01-30T12:35:50.883Z,10.30
2019-01-30T12:36:50.859Z,10.60
2019-01-30T12:37:50.843Z,11.50
2019-01-30T12:38:50.823Z,11.80
2019-01-30T12:39:52.436Z,11.20
2019-01-30T12:40:50.765Z,10.60
2019-01-30T12:41:50.735Z,10.60
2019-01-30T12:42:50.707Z,11.80
2019-01-30T12:43:50.688Z,10.40
2019-01-30T12:44:50.668Z,11.30
2019-01-30T12:45:50.682Z,10.80
2019-01-30T12:46:50.605Z,10.50
2019-01-30T12:47:50.567Z,10.30
2019-01-30T12:48:50.570Z,11.40
2019-01-30T12:49:50.520Z,10.40
2019-01-30T12:50:50.483Z,11.10
2019-01-30T12:51:50.496Z,10.90
2019-01-30T12:52:50.437Z,10.70
2019-01-30T12:53:50.447Z,10.70
2019-01-30T12:54:50.412Z,10.50
2019-01-30T12:55:50.377Z,11.80
2019-01-30T12:56:50.367Z,11.00
2019-01-30T12:57:50.324Z,10.70
2019-01-30T12:58:50.296Z,11.30
2019-01-30T12:59:50.258Z,10.50
2019-01-30T13:00:50.331Z,11.00
2019-01-30T13:01:50.212Z,10.80
2019-01-30T13:02:50.191Z,10.80
2019-01-30T13:03:50.145Z,11.00
2019-01-30T13:04:50.139Z,11.70
2019-01-30T13:05:50.131Z,11.20
2019-01-30T13:06:50.066Z,11.50
2019-01-30T13:07:50.062Z,11.50
2019-01-30T13:08:50.013Z,11.60
2019-01-30T13:09:50.012Z,11.70
2019-01-30T13:10:49.974Z,11.70
2019-01-30T13:11:49.952Z,11.70
2019-01-30T13:12:49.931Z,11.40
2019-01-30T13:13:49.887Z,11.80
2019-01-30T13:14:49.854Z,11.40
2019-01-30T13:15:49.857Z,12.80